sensor_id;sensor_type;location;lat;lon;timestamp;P1;durP1;ratioP1;P2;durP2;ratioP2
70150;SDS011;57517;43.562;19.540;2022-08-03T00:01:57;10.27;;;9.15;;
70150;SDS011;57517;43.562;19.540;2022-08-03T00:04:23;10.90;;;9.80;;
70150;SDS011;57517;43.562;19.540;2022-08-03T00:06:49;11.25;;;8.93;;
70150;SDS011;57517;43.562;19.540;2022-08-03T00:09:15;11.60;;;9.02;;
70150;SDS011;57517;43.562;19.540;2022-08-03T00:11:41;10.07;;;9.02;;
70150;SDS011;57517;43.562;19.540;2022-08-03T00:14:07;10.13;;;8.70;;
70150;SDS011;57517;43.562;19.540;2022-08-03T00:16:33;10.98;;;8.77;;
70150;SDS011;57517;43.562;19.540;2022-08-03T00:18:59;13.77;;;10.18;;
70150;SDS011;57517;43.562;19.540;2022-08-03T00:21:25;12.20;;;9.35;;
70150;SDS011;57517;43.562;19.540;2022-08-03T00:23:51;10.10;;;9.07;;
70150;SDS011;57517;43.562;19.540;2022-08-03T00:26:17;10.65;;;9.65;;
70150;SDS011;57517;43.562;19.540;2022-08-03T00:28:42;10.13;;;9.13;;
70150;SDS011;57517;43.562;19.540;2022-08-03T00:31:08;9.55;;;8.30;;
70150;SDS011;57517;43.562;19.540;2022-08-03T00:33:34;10.18;;;9.13;;
70150;SDS011;57517;43.562;19.540;2022-08-03T00:36:00;12.20;;;8.93;;
70150;SDS011;57517;43.562;19.540;2022-08-03T00:38:26;11.95;;;9.60;;
70150;SDS011;57517;43.562;19.540;2022-08-03T00:40:51;12.00;;;10.30;;
70150;SDS011;57517;43.562;19.540;2022-08-03T00:43:17;12.23;;;10.13;;
70150;SDS011;57517;43.562;19.540;2022-08-03T00:45:43;12.60;;;10.80;;
70150;SDS011;57517;43.562;19.540;2022-08-03T00:48:10;11.95;;;10.40;;
70150;SDS011;57517;43.562;19.540;2022-08-03T00:50:41;10.30;;;9.20;;
70150;SDS011;57517;43.562;19.540;2022-08-03T00:53:09;10.63;;;9.63;;
70150;SDS011;57517;43.562;19.540;2022-08-03T00:55:39;11.90;;;10.48;;
70150;SDS011;57517;43.562;19.540;2022-08-03T00:58:06;11.60;;;10.40;;
70150;SDS011;57517;43.562;19.540;2022-08-03T01:00:34;10.88;;;9.48;;
70150;SDS011;57517;43.562;19.540;2022-08-03T01:03:02;12.07;;;10.15;;
70150;SDS011;57517;43.562;19.540;2022-08-03T01:10:59;10.65;;;9.70;;
70150;SDS011;57517;43.562;19.540;2022-08-03T01:13:37;12.77;;;10.10;;
70150;SDS011;57517;43.562;19.540;2022-08-03T01:21:39;12.52;;;11.23;;
70150;SDS011;57517;43.562;19.540;2022-08-03T01:24:41;12.52;;;9.77;;
70150;SDS011;57517;43.562;19.540;2022-08-03T01:27:20;10.50;;;9.40;;
70150;SDS011;57517;43.562;19.540;2022-08-03T01:30:05;11.50;;;10.05;;
70150;SDS011;57517;43.562;19.540;2022-08-03T01:32:40;10.93;;;9.80;;
70150;SDS011;57517;43.562;19.540;2022-08-03T01:35:24;11.80;;;10.05;;
70150;SDS011;57517;43.562;19.540;2022-08-03T01:37:55;14.30;;;10.38;;
70150;SDS011;57517;43.562;19.540;2022-08-03T01:40:25;13.27;;;11.15;;
70150;SDS011;57517;43.562;19.540;2022-08-03T01:42:56;12.32;;;10.82;;
70150;SDS011;57517;43.562;19.540;2022-08-03T01:45:23;12.35;;;11.15;;
70150;SDS011;57517;43.562;19.540;2022-08-03T01:47:51;11.05;;;9.82;;
70150;SDS011;57517;43.562;19.540;2022-08-03T01:50:20;11.60;;;9.90;;
70150;SDS011;57517;43.562;19.540;2022-08-03T01:52:50;11.02;;;9.80;;
70150;SDS011;57517;43.562;19.540;2022-08-03T01:55:18;11.77;;;10.65;;
70150;SDS011;57517;43.562;19.540;2022-08-03T01:57:47;10.77;;;9.68;;
70150;SDS011;57517;43.562;19.540;2022-08-03T02:00:14;11.23;;;10.13;;
70150;SDS011;57517;43.562;19.540;2022-08-03T02:02:41;11.25;;;10.15;;
70150;SDS011;57517;43.562;19.540;2022-08-03T02:05:08;11.95;;;10.75;;
70150;SDS011;57517;43.562;19.540;2022-08-03T02:07:37;11.93;;;10.68;;
70150;SDS011;57517;43.562;19.540;2022-08-03T02:10:06;12.82;;;10.23;;
70150;SDS011;57517;43.562;19.540;2022-08-03T02:12:33;11.23;;;10.02;;
70150;SDS011;57517;43.562;19.540;2022-08-03T02:15:02;11.95;;;10.75;;
70150;SDS011;57517;43.562;19.540;2022-08-03T02:17:29;12.65;;;10.80;;
70150;SDS011;57517;43.562;19.540;2022-08-03T02:19:56;12.93;;;11.07;;
70150;SDS011;57517;43.562;19.540;2022-08-03T02:22:24;12.15;;;11.02;;
70150;SDS011;57517;43.562;19.540;2022-08-03T02:24:51;13.15;;;11.80;;
70150;SDS011;57517;43.562;19.540;2022-08-03T02:27:25;11.55;;;10.38;;
70150;SDS011;57517;43.562;19.540;2022-08-03T02:29:54;13.30;;;11.93;;
70150;SDS011;57517;43.562;19.540;2022-08-03T02:32:33;12.35;;;11.13;;
70150;SDS011;57517;43.562;19.540;2022-08-03T02:35:02;13.48;;;11.82;;
70150;SDS011;57517;43.562;19.540;2022-08-03T02:37:33;12.15;;;10.90;;
70150;SDS011;57517;43.562;19.540;2022-08-03T02:40:02;12.40;;;10.55;;
70150;SDS011;57517;43.562;19.540;2022-08-03T02:42:31;13.15;;;10.50;;
70150;SDS011;57517;43.562;19.540;2022-08-03T02:44:58;11.75;;;10.32;;
70150;SDS011;57517;43.562;19.540;2022-08-03T02:47:27;11.68;;;10.45;;
70150;SDS011;57517;43.562;19.540;2022-08-03T02:49:54;11.95;;;10.32;;
70150;SDS011;57517;43.562;19.540;2022-08-03T02:52:25;12.25;;;10.93;;
70150;SDS011;57517;43.562;19.540;2022-08-03T02:54:55;11.35;;;10.18;;
70150;SDS011;57517;43.562;19.540;2022-08-03T02:57:24;11.50;;;10.30;;
70150;SDS011;57517;43.562;19.540;2022-08-03T02:59:52;12.30;;;11.00;;
70150;SDS011;57517;43.562;19.540;2022-08-03T03:02:19;11.80;;;10.60;;
70150;SDS011;57517;43.562;19.540;2022-08-03T03:04:46;12.30;;;10.90;;
70150;SDS011;57517;43.562;19.540;2022-08-03T03:07:15;12.82;;;11.55;;
70150;SDS011;57517;43.562;19.540;2022-08-03T03:09:42;12.20;;;10.80;;
70150;SDS011;57517;43.562;19.540;2022-08-03T03:12:09;13.05;;;11.75;;
70150;SDS011;57517;43.562;19.540;2022-08-03T03:14:37;12.18;;;10.85;;
70150;SDS011;57517;43.562;19.540;2022-08-03T03:17:03;12.02;;;10.82;;
70150;SDS011;57517;43.562;19.540;2022-08-03T03:19:31;12.38;;;11.07;;
70150;SDS011;57517;43.562;19.540;2022-08-03T03:21:59;11.25;;;10.10;;
70150;SDS011;57517;43.562;19.540;2022-08-03T03:24:26;12.18;;;10.98;;
70150;SDS011;57517;43.562;19.540;2022-08-03T03:26:53;12.10;;;10.90;;
70150;SDS011;57517;43.562;19.540;2022-08-03T03:29:20;12.27;;;10.98;;
70150;SDS011;57517;43.562;19.540;2022-08-03T03:31:47;14.18;;;12.13;;
70150;SDS011;57517;43.562;19.540;2022-08-03T03:34:12;12.48;;;11.27;;
70150;SDS011;57517;43.562;19.540;2022-08-03T03:36:39;14.23;;;12.73;;
70150;SDS011;57517;43.562;19.540;2022-08-03T03:39:05;14.73;;;11.75;;
70150;SDS011;57517;43.562;19.540;2022-08-03T03:41:31;11.70;;;10.50;;
70150;SDS011;57517;43.562;19.540;2022-08-03T03:43:57;12.38;;;10.55;;
70150;SDS011;57517;43.562;19.540;2022-08-03T03:46:23;11.50;;;10.27;;
70150;SDS011;57517;43.562;19.540;2022-08-03T03:48:49;12.35;;;11.05;;
70150;SDS011;57517;43.562;19.540;2022-08-03T03:51:15;13.05;;;11.75;;
70150;SDS011;57517;43.562;19.540;2022-08-03T03:53:54;12.52;;;11.30;;
70150;SDS011;57517;43.562;19.540;2022-08-03T03:56:21;12.77;;;11.20;;
70150;SDS011;57517;43.562;19.540;2022-08-03T03:58:47;11.52;;;10.25;;
70150;SDS011;57517;43.562;19.540;2022-08-03T04:01:14;12.85;;;11.23;;
70150;SDS011;57517;43.562;19.540;2022-08-03T04:03:40;13.98;;;11.48;;
70150;SDS011;57517;43.562;19.540;2022-08-03T04:06:06;14.05;;;12.60;;
70150;SDS011;57517;43.562;19.540;2022-08-03T04:08:50;13.82;;;12.27;;
70150;SDS011;57517;43.562;19.540;2022-08-03T04:11:39;12.82;;;11.45;;
70150;SDS011;57517;43.562;19.540;2022-08-03T04:14:18;13.13;;;11.82;;
70150;SDS011;57517;43.562;19.540;2022-08-03T04:16:49;12.48;;;11.18;;
70150;SDS011;57517;43.562;19.540;2022-08-03T04:19:22;13.32;;;11.48;;
70150;SDS011;57517;43.562;19.540;2022-08-03T04:21:50;12.57;;;11.25;;
70150;SDS011;57517;43.562;19.540;2022-08-03T04:24:20;15.57;;;11.98;;
70150;SDS011;57517;43.562;19.540;2022-08-03T04:26:47;12.98;;;10.77;;
70150;SDS011;57517;43.562;19.540;2022-08-03T04:29:14;13.70;;;12.07;;
70150;SDS011;57517;43.562;19.540;2022-08-03T04:31:43;13.88;;;11.25;;
70150;SDS011;57517;43.562;19.540;2022-08-03T04:34:10;13.13;;;11.68;;
70150;SDS011;57517;43.562;19.540;2022-08-03T04:36:39;13.50;;;10.95;;
70150;SDS011;57517;43.562;19.540;2022-08-03T04:39:17;13.90;;;12.43;;
70150;SDS011;57517;43.562;19.540;2022-08-03T04:41:50;13.18;;;11.65;;
70150;SDS011;57517;43.562;19.540;2022-08-03T04:44:22;16.33;;;13.27;;
70150;SDS011;57517;43.562;19.540;2022-08-03T04:46:49;13.18;;;11.80;;
70150;SDS011;57517;43.562;19.540;2022-08-03T04:49:17;13.88;;;11.88;;
70150;SDS011;57517;43.562;19.540;2022-08-03T04:51:44;13.65;;;11.65;;
70150;SDS011;57517;43.562;19.540;2022-08-03T04:54:11;13.13;;;10.90;;
70150;SDS011;57517;43.562;19.540;2022-08-03T04:56:40;13.40;;;11.13;;
70150;SDS011;57517;43.562;19.540;2022-08-03T04:59:07;12.95;;;11.48;;
70150;SDS011;57517;43.562;19.540;2022-08-03T05:01:34;12.75;;;11.45;;
70150;SDS011;57517;43.562;19.540;2022-08-03T05:04:00;13.07;;;11.32;;
70150;SDS011;57517;43.562;19.540;2022-08-03T05:06:26;12.82;;;10.65;;
70150;SDS011;57517;43.562;19.540;2022-08-03T05:08:53;13.57;;;12.20;;
70150;SDS011;57517;43.562;19.540;2022-08-03T05:11:19;13.27;;;11.50;;
70150;SDS011;57517;43.562;19.540;2022-08-03T05:13:45;12.40;;;11.13;;
70150;SDS011;57517;43.562;19.540;2022-08-03T05:16:12;12.82;;;11.50;;
70150;SDS011;57517;43.562;19.540;2022-08-03T05:18:39;13.88;;;12.07;;
70150;SDS011;57517;43.562;19.540;2022-08-03T05:21:06;14.43;;;11.73;;
70150;SDS011;57517;43.562;19.540;2022-08-03T05:23:33;13.48;;;12.07;;
70150;SDS011;57517;43.562;19.540;2022-08-03T05:25:59;12.73;;;11.63;;
70150;SDS011;57517;43.562;19.540;2022-08-03T05:28:25;13.07;;;11.90;;
70150;SDS011;57517;43.562;19.540;2022-08-03T05:30:51;12.88;;;11.68;;
70150;SDS011;57517;43.562;19.540;2022-08-03T05:33:17;14.05;;;12.70;;
70150;SDS011;57517;43.562;19.540;2022-08-03T05:35:42;13.20;;;12.05;;
70150;SDS011;57517;43.562;19.540;2022-08-03T05:38:08;12.98;;;11.88;;
70150;SDS011;57517;43.562;19.540;2022-08-03T05:40:34;13.27;;;12.07;;
70150;SDS011;57517;43.562;19.540;2022-08-03T05:43:00;12.32;;;11.30;;
70150;SDS011;57517;43.562;19.540;2022-08-03T05:45:28;12.00;;;10.90;;
70150;SDS011;57517;43.562;19.540;2022-08-03T05:47:53;12.55;;;11.45;;
70150;SDS011;57517;43.562;19.540;2022-08-03T05:50:19;12.75;;;11.55;;
70150;SDS011;57517;43.562;19.540;2022-08-03T05:52:45;13.38;;;12.23;;
70150;SDS011;57517;43.562;19.540;2022-08-03T05:55:12;14.80;;;13.27;;
70150;SDS011;57517;43.562;19.540;2022-08-03T05:57:38;14.65;;;13.15;;
70150;SDS011;57517;43.562;19.540;2022-08-03T06:00:08;14.27;;;12.98;;
70150;SDS011;57517;43.562;19.540;2022-08-03T06:02:35;12.60;;;11.50;;
70150;SDS011;57517;43.562;19.540;2022-08-03T06:05:01;12.80;;;11.65;;
70150;SDS011;57517;43.562;19.540;2022-08-03T06:07:28;13.60;;;12.13;;
70150;SDS011;57517;43.562;19.540;2022-08-03T06:09:54;14.30;;;13.10;;
70150;SDS011;57517;43.562;19.540;2022-08-03T06:12:20;13.57;;;12.27;;
70150;SDS011;57517;43.562;19.540;2022-08-03T06:14:45;12.57;;;11.32;;
70150;SDS011;57517;43.562;19.540;2022-08-03T06:17:11;11.63;;;10.55;;
70150;SDS011;57517;43.562;19.540;2022-08-03T06:19:37;12.35;;;11.30;;
70150;SDS011;57517;43.562;19.540;2022-08-03T06:22:03;13.18;;;11.98;;
70150;SDS011;57517;43.562;19.540;2022-08-03T06:24:29;12.52;;;11.52;;
70150;SDS011;57517;43.562;19.540;2022-08-03T06:26:55;12.82;;;11.73;;
70150;SDS011;57517;43.562;19.540;2022-08-03T06:29:21;12.57;;;11.57;;
70150;SDS011;57517;43.562;19.540;2022-08-03T06:31:47;12.43;;;11.15;;
70150;SDS011;57517;43.562;19.540;2022-08-03T06:34:12;11.00;;;10.10;;
70150;SDS011;57517;43.562;19.540;2022-08-03T06:36:38;12.52;;;11.43;;
70150;SDS011;57517;43.562;19.540;2022-08-03T06:39:04;12.18;;;11.18;;
70150;SDS011;57517;43.562;19.540;2022-08-03T06:41:30;11.85;;;10.75;;
70150;SDS011;57517;43.562;19.540;2022-08-03T06:43:56;12.43;;;11.43;;
70150;SDS011;57517;43.562;19.540;2022-08-03T06:46:22;12.65;;;11.60;;
70150;SDS011;57517;43.562;19.540;2022-08-03T06:48:48;13.15;;;11.85;;
70150;SDS011;57517;43.562;19.540;2022-08-03T06:51:13;11.68;;;10.68;;
70150;SDS011;57517;43.562;19.540;2022-08-03T06:53:39;12.27;;;11.27;;
70150;SDS011;57517;43.562;19.540;2022-08-03T06:56:05;12.07;;;10.88;;
70150;SDS011;57517;43.562;19.540;2022-08-03T06:58:32;12.27;;;11.27;;
70150;SDS011;57517;43.562;19.540;2022-08-03T07:00:58;12.63;;;11.57;;
70150;SDS011;57517;43.562;19.540;2022-08-03T07:03:24;12.13;;;11.10;;
70150;SDS011;57517;43.562;19.540;2022-08-03T07:05:50;11.55;;;10.55;;
70150;SDS011;57517;43.562;19.540;2022-08-03T07:08:16;12.65;;;11.63;;
70150;SDS011;57517;43.562;19.540;2022-08-03T07:10:45;12.18;;;11.13;;
70150;SDS011;57517;43.562;19.540;2022-08-03T07:13:11;12.23;;;11.23;;
70150;SDS011;57517;43.562;19.540;2022-08-03T07:15:38;11.82;;;11.02;;
70150;SDS011;57517;43.562;19.540;2022-08-03T07:18:04;12.75;;;11.75;;
70150;SDS011;57517;43.562;19.540;2022-08-03T07:20:30;12.68;;;11.68;;
70150;SDS011;57517;43.562;19.540;2022-08-03T07:22:57;13.88;;;12.75;;
70150;SDS011;57517;43.562;19.540;2022-08-03T07:25:23;13.02;;;11.77;;
70150;SDS011;57517;43.562;19.540;2022-08-03T07:27:49;13.30;;;12.30;;
70150;SDS011;57517;43.562;19.540;2022-08-03T07:30:17;13.35;;;12.35;;
70150;SDS011;57517;43.562;19.540;2022-08-03T07:32:43;12.90;;;12.00;;
70150;SDS011;57517;43.562;19.540;2022-08-03T07:35:09;13.13;;;12.13;;
70150;SDS011;57517;43.562;19.540;2022-08-03T07:37:36;12.55;;;11.65;;
70150;SDS011;57517;43.562;19.540;2022-08-03T07:40:02;13.45;;;12.35;;
70150;SDS011;57517;43.562;19.540;2022-08-03T07:42:29;13.35;;;12.45;;
70150;SDS011;57517;43.562;19.540;2022-08-03T07:44:55;12.90;;;11.95;;
70150;SDS011;57517;43.562;19.540;2022-08-03T07:47:22;13.43;;;12.32;;
70150;SDS011;57517;43.562;19.540;2022-08-03T07:49:50;12.70;;;11.50;;
70150;SDS011;57517;43.562;19.540;2022-08-03T07:52:16;10.50;;;9.50;;
70150;SDS011;57517;43.562;19.540;2022-08-03T07:55:00;11.18;;;10.10;;
70150;SDS011;57517;43.562;19.540;2022-08-03T07:57:26;11.20;;;10.20;;
70150;SDS011;57517;43.562;19.540;2022-08-03T07:59:52;14.57;;;13.27;;
70150;SDS011;57517;43.562;19.540;2022-08-03T08:02:18;14.20;;;12.98;;
70150;SDS011;57517;43.562;19.540;2022-08-03T08:04:44;11.25;;;10.18;;
70150;SDS011;57517;43.562;19.540;2022-08-03T08:07:10;13.43;;;12.13;;
70150;SDS011;57517;43.562;19.540;2022-08-03T08:09:36;12.60;;;11.40;;
70150;SDS011;57517;43.562;19.540;2022-08-03T08:12:02;12.70;;;11.43;;
70150;SDS011;57517;43.562;19.540;2022-08-03T08:14:28;10.60;;;9.60;;
70150;SDS011;57517;43.562;19.540;2022-08-03T08:16:54;11.85;;;10.77;;
70150;SDS011;57517;43.562;19.540;2022-08-03T08:19:20;12.50;;;11.30;;
70150;SDS011;57517;43.562;19.540;2022-08-03T08:21:46;10.60;;;9.60;;
70150;SDS011;57517;43.562;19.540;2022-08-03T08:24:12;13.07;;;11.55;;
70150;SDS011;57517;43.562;19.540;2022-08-03T08:26:37;10.82;;;9.77;;
70150;SDS011;57517;43.562;19.540;2022-08-03T08:29:03;12.05;;;10.95;;
70150;SDS011;57517;43.562;19.540;2022-08-03T08:31:30;12.48;;;11.00;;
70150;SDS011;57517;43.562;19.540;2022-08-03T08:33:56;10.40;;;9.50;;
70150;SDS011;57517;43.562;19.540;2022-08-03T08:36:22;11.35;;;10.25;;
70150;SDS011;57517;43.562;19.540;2022-08-03T08:38:48;11.63;;;10.15;;
70150;SDS011;57517;43.562;19.540;2022-08-03T08:41:14;11.43;;;10.32;;
70150;SDS011;57517;43.562;19.540;2022-08-03T08:43:40;10.82;;;9.82;;
70150;SDS011;57517;43.562;19.540;2022-08-03T08:46:10;10.90;;;9.88;;
70150;SDS011;57517;43.562;19.540;2022-08-03T08:48:39;11.45;;;10.20;;
70150;SDS011;57517;43.562;19.540;2022-08-03T08:51:08;12.35;;;10.55;;
70150;SDS011;57517;43.562;19.540;2022-08-03T08:53:37;10.25;;;9.35;;
70150;SDS011;57517;43.562;19.540;2022-08-03T08:56:07;10.27;;;9.30;;
70150;SDS011;57517;43.562;19.540;2022-08-03T08:58:40;11.80;;;9.57;;
70150;SDS011;57517;43.562;19.540;2022-08-03T09:01:11;10.80;;;9.70;;
70150;SDS011;57517;43.562;19.540;2022-08-03T09:03:37;10.55;;;9.65;;
70150;SDS011;57517;43.562;19.540;2022-08-03T09:06:03;9.90;;;8.90;;
70150;SDS011;57517;43.562;19.540;2022-08-03T09:08:29;9.55;;;8.65;;
70150;SDS011;57517;43.562;19.540;2022-08-03T09:10:56;10.18;;;9.13;;
70150;SDS011;57517;43.562;19.540;2022-08-03T09:13:22;9.77;;;8.77;;
70150;SDS011;57517;43.562;19.540;2022-08-03T09:15:48;10.73;;;9.35;;
70150;SDS011;57517;43.562;19.540;2022-08-03T09:18:32;9.77;;;8.77;;
70150;SDS011;57517;43.562;19.540;2022-08-03T09:21:14;9.30;;;7.95;;
70150;SDS011;57517;43.562;19.540;2022-08-03T09:23:50;11.18;;;10.02;;
70150;SDS011;57517;43.562;19.540;2022-08-03T09:26:20;11.63;;;10.40;;
70150;SDS011;57517;43.562;19.540;2022-08-03T09:28:56;14.52;;;12.75;;
70150;SDS011;57517;43.562;19.540;2022-08-03T09:34:01;9.10;;;8.20;;
70150;SDS011;57517;43.562;19.540;2022-08-03T09:36:34;18.65;;;16.55;;
70150;SDS011;57517;43.562;19.540;2022-08-03T09:39:06;18.20;;;16.50;;
70150;SDS011;57517;43.562;19.540;2022-08-03T09:41:36;16.60;;;14.93;;
70150;SDS011;57517;43.562;19.540;2022-08-03T09:44:02;9.20;;;8.32;;
70150;SDS011;57517;43.562;19.540;2022-08-03T09:46:29;9.13;;;8.20;;
70150;SDS011;57517;43.562;19.540;2022-08-03T09:49:11;8.88;;;7.97;;
70150;SDS011;57517;43.562;19.540;2022-08-03T09:51:38;8.38;;;7.57;;
70150;SDS011;57517;43.562;19.540;2022-08-03T09:54:04;9.18;;;8.23;;
70150;SDS011;57517;43.562;19.540;2022-08-03T09:56:40;8.25;;;7.43;;
70150;SDS011;57517;43.562;19.540;2022-08-03T09:59:12;12.50;;;10.27;;
70150;SDS011;57517;43.562;19.540;2022-08-03T10:01:47;10.73;;;8.15;;
70150;SDS011;57517;43.562;19.540;2022-08-03T10:04:14;7.45;;;6.75;;
70150;SDS011;57517;43.562;19.540;2022-08-03T10:06:43;8.18;;;7.38;;
70150;SDS011;57517;43.562;19.540;2022-08-03T10:09:24;8.25;;;7.40;;
70150;SDS011;57517;43.562;19.540;2022-08-03T10:11:50;9.52;;;7.07;;
70150;SDS011;57517;43.562;19.540;2022-08-03T10:14:16;7.57;;;6.88;;
70150;SDS011;57517;43.562;19.540;2022-08-03T10:16:43;6.95;;;6.25;;
70150;SDS011;57517;43.562;19.540;2022-08-03T10:19:10;8.95;;;7.75;;
70150;SDS011;57517;43.562;19.540;2022-08-03T10:21:40;7.90;;;6.78;;
70150;SDS011;57517;43.562;19.540;2022-08-03T10:26:39;6.70;;;6.03;;
70150;SDS011;57517;43.562;19.540;2022-08-03T10:29:10;6.72;;;6.10;;
70150;SDS011;57517;43.562;19.540;2022-08-03T10:31:39;6.60;;;6.00;;
70150;SDS011;57517;43.562;19.540;2022-08-03T10:34:10;7.45;;;6.40;;
70150;SDS011;57517;43.562;19.540;2022-08-03T10:36:42;15.88;;;7.82;;
70150;SDS011;57517;43.562;19.540;2022-08-03T10:39:11;10.32;;;5.78;;
70150;SDS011;57517;43.562;19.540;2022-08-03T10:41:39;6.75;;;5.50;;
70150;SDS011;57517;43.562;19.540;2022-08-03T10:44:19;7.40;;;5.68;;
70150;SDS011;57517;43.562;19.540;2022-08-03T10:46:48;7.28;;;5.78;;
70150;SDS011;57517;43.562;19.540;2022-08-03T10:49:16;8.38;;;5.60;;
70150;SDS011;57517;43.562;19.540;2022-08-03T10:51:43;8.02;;;6.75;;
70150;SDS011;57517;43.562;19.540;2022-08-03T10:57:01;9.23;;;6.88;;
70150;SDS011;57517;43.562;19.540;2022-08-03T11:02:14;6.75;;;5.07;;
70150;SDS011;57517;43.562;19.540;2022-08-03T11:04:40;5.22;;;4.57;;
70150;SDS011;57517;43.562;19.540;2022-08-03T11:09:42;7.40;;;4.55;;
70150;SDS011;57517;43.562;19.540;2022-08-03T11:12:24;5.93;;;3.90;;
70150;SDS011;57517;43.562;19.540;2022-08-03T11:15:01;4.65;;;4.18;;
70150;SDS011;57517;43.562;19.540;2022-08-03T11:17:29;4.82;;;4.18;;
70150;SDS011;57517;43.562;19.540;2022-08-03T11:19:55;4.90;;;4.40;;
70150;SDS011;57517;43.562;19.540;2022-08-03T11:22:21;6.50;;;4.88;;
70150;SDS011;57517;43.562;19.540;2022-08-03T11:27:22;6.53;;;4.70;;
70150;SDS011;57517;43.562;19.540;2022-08-03T11:35:16;5.93;;;4.45;;
70150;SDS011;57517;43.562;19.540;2022-08-03T11:43:04;4.15;;;3.72;;
70150;SDS011;57517;43.562;19.540;2022-08-03T11:45:31;5.00;;;4.00;;
70150;SDS011;57517;43.562;19.540;2022-08-03T11:47:58;4.97;;;4.47;;
70150;SDS011;57517;43.562;19.540;2022-08-03T11:50:41;5.47;;;4.20;;
70150;SDS011;57517;43.562;19.540;2022-08-03T11:53:12;5.22;;;4.57;;
70150;SDS011;57517;43.562;19.540;2022-08-03T11:55:40;4.68;;;4.18;;
70150;SDS011;57517;43.562;19.540;2022-08-03T11:58:13;5.10;;;4.30;;
70150;SDS011;57517;43.562;19.540;2022-08-03T12:00:46;5.85;;;4.80;;
70150;SDS011;57517;43.562;19.540;2022-08-03T12:03:14;5.70;;;4.28;;
70150;SDS011;57517;43.562;19.540;2022-08-03T12:05:43;4.85;;;4.35;;
70150;SDS011;57517;43.562;19.540;2022-08-03T12:08:17;4.53;;;4.10;;
70150;SDS011;57517;43.562;19.540;2022-08-03T12:10:52;4.93;;;4.43;;
70150;SDS011;57517;43.562;19.540;2022-08-03T12:13:21;8.93;;;4.60;;
70150;SDS011;57517;43.562;19.540;2022-08-03T12:15:54;4.45;;;4.05;;
70150;SDS011;57517;43.562;19.540;2022-08-03T12:18:22;5.47;;;4.18;;
70150;SDS011;57517;43.562;19.540;2022-08-03T12:20:49;5.78;;;4.57;;
70150;SDS011;57517;43.562;19.540;2022-08-03T12:23:17;5.50;;;3.97;;
70150;SDS011;57517;43.562;19.540;2022-08-03T12:25:43;4.13;;;3.72;;
70150;SDS011;57517;43.562;19.540;2022-08-03T12:28:15;4.78;;;3.50;;
70150;SDS011;57517;43.562;19.540;2022-08-03T12:30:50;5.57;;;4.00;;
70150;SDS011;57517;43.562;19.540;2022-08-03T12:33:21;5.28;;;4.15;;
70150;SDS011;57517;43.562;19.540;2022-08-03T12:36:06;4.25;;;3.70;;
70150;SDS011;57517;43.562;19.540;2022-08-03T12:38:37;5.82;;;4.63;;
70150;SDS011;57517;43.562;19.540;2022-08-03T12:43:30;7.70;;;6.93;;
70150;SDS011;57517;43.562;19.540;2022-08-03T12:46:06;9.93;;;8.88;;
70150;SDS011;57517;43.562;19.540;2022-08-03T12:48:56;7.63;;;6.65;;
70150;SDS011;57517;43.562;19.540;2022-08-03T12:51:23;10.93;;;8.68;;
70150;SDS011;57517;43.562;19.540;2022-08-03T12:53:54;8.80;;;4.40;;
70150;SDS011;57517;43.562;19.540;2022-08-03T12:56:22;6.05;;;5.45;;
70150;SDS011;57517;43.562;19.540;2022-08-03T12:58:48;5.82;;;4.53;;
70150;SDS011;57517;43.562;19.540;2022-08-03T13:01:17;5.82;;;4.70;;
70150;SDS011;57517;43.562;19.540;2022-08-03T13:03:44;6.10;;;4.85;;
70150;SDS011;57517;43.562;19.540;2022-08-03T13:06:13;8.55;;;5.95;;
70150;SDS011;57517;43.562;19.540;2022-08-03T13:08:39;7.38;;;5.18;;
70150;SDS011;57517;43.562;19.540;2022-08-03T13:11:19;6.03;;;5.40;;
70150;SDS011;57517;43.562;19.540;2022-08-03T13:13:51;14.80;;;10.35;;
70150;SDS011;57517;43.562;19.540;2022-08-03T13:16:18;8.27;;;7.30;;
70150;SDS011;57517;43.562;19.540;2022-08-03T13:18:46;10.48;;;8.55;;
70150;SDS011;57517;43.562;19.540;2022-08-03T13:21:16;11.60;;;9.05;;
70150;SDS011;57517;43.562;19.540;2022-08-03T13:23:44;8.82;;;6.10;;
70150;SDS011;57517;43.562;19.540;2022-08-03T13:26:10;6.68;;;5.95;;
70150;SDS011;57517;43.562;19.540;2022-08-03T13:28:37;11.10;;;7.28;;
70150;SDS011;57517;43.562;19.540;2022-08-03T13:31:03;7.57;;;6.15;;
70150;SDS011;57517;43.562;19.540;2022-08-03T13:33:29;7.78;;;6.50;;
70150;SDS011;57517;43.562;19.540;2022-08-03T13:35:55;10.73;;;8.65;;
70150;SDS011;57517;43.562;19.540;2022-08-03T13:38:22;8.32;;;7.10;;
70150;SDS011;57517;43.562;19.540;2022-08-03T13:40:48;8.20;;;6.32;;
70150;SDS011;57517;43.562;19.540;2022-08-03T13:43:16;9.80;;;6.82;;
70150;SDS011;57517;43.562;19.540;2022-08-03T13:45:42;6.55;;;5.50;;
70150;SDS011;57517;43.562;19.540;2022-08-03T13:48:07;6.43;;;4.47;;
70150;SDS011;57517;43.562;19.540;2022-08-03T13:50:33;5.93;;;5.43;;
70150;SDS011;57517;43.562;19.540;2022-08-03T13:52:59;4.93;;;4.43;;
70150;SDS011;57517;43.562;19.540;2022-08-03T13:55:25;7.22;;;5.97;;
70150;SDS011;57517;43.562;19.540;2022-08-03T13:57:51;7.25;;;6.07;;
70150;SDS011;57517;43.562;19.540;2022-08-03T14:00:16;6.90;;;6.20;;
70150;SDS011;57517;43.562;19.540;2022-08-03T14:02:47;9.85;;;6.63;;
70150;SDS011;57517;43.562;19.540;2022-08-03T14:05:13;6.85;;;5.55;;
70150;SDS011;57517;43.562;19.540;2022-08-03T14:07:38;7.47;;;6.25;;
70150;SDS011;57517;43.562;19.540;2022-08-03T14:10:04;5.07;;;4.55;;
70150;SDS011;57517;43.562;19.540;2022-08-03T14:12:30;5.40;;;4.30;;
70150;SDS011;57517;43.562;19.540;2022-08-03T14:14:56;5.25;;;4.43;;
70150;SDS011;57517;43.562;19.540;2022-08-03T14:17:22;4.78;;;4.28;;
70150;SDS011;57517;43.562;19.540;2022-08-03T14:19:48;4.85;;;4.35;;
70150;SDS011;57517;43.562;19.540;2022-08-03T14:22:13;5.60;;;4.70;;
70150;SDS011;57517;43.562;19.540;2022-08-03T14:24:39;6.15;;;4.72;;
70150;SDS011;57517;43.562;19.540;2022-08-03T14:27:05;6.32;;;4.70;;
70150;SDS011;57517;43.562;19.540;2022-08-03T14:29:31;5.28;;;4.40;;
70150;SDS011;57517;43.562;19.540;2022-08-03T14:31:57;7.60;;;4.97;;
70150;SDS011;57517;43.562;19.540;2022-08-03T14:34:22;7.10;;;5.82;;
70150;SDS011;57517;43.562;19.540;2022-08-03T14:36:48;7.43;;;6.65;;
70150;SDS011;57517;43.562;19.540;2022-08-03T14:39:14;9.98;;;6.00;;
70150;SDS011;57517;43.562;19.540;2022-08-03T14:41:40;8.75;;;5.45;;
70150;SDS011;57517;43.562;19.540;2022-08-03T14:44:06;8.85;;;7.88;;
70150;SDS011;57517;43.562;19.540;2022-08-03T14:46:32;5.97;;;5.10;;
70150;SDS011;57517;43.562;19.540;2022-08-03T14:48:57;8.15;;;5.28;;
70150;SDS011;57517;43.562;19.540;2022-08-03T14:51:23;6.25;;;5.28;;
70150;SDS011;57517;43.562;19.540;2022-08-03T14:53:49;5.95;;;4.88;;
70150;SDS011;57517;43.562;19.540;2022-08-03T14:56:15;6.05;;;5.10;;
70150;SDS011;57517;43.562;19.540;2022-08-03T14:58:41;6.68;;;5.18;;
70150;SDS011;57517;43.562;19.540;2022-08-03T15:01:07;5.18;;;4.47;;
70150;SDS011;57517;43.562;19.540;2022-08-03T15:03:33;6.50;;;5.32;;
70150;SDS011;57517;43.562;19.540;2022-08-03T15:05:58;7.22;;;6.53;;